createdAt,value
2018-09-28T00:00:15.219Z,1851.03
2018-09-28T00:02:43.081Z,1828.03
2018-09-28T00:05:10.951Z,1863.73
2018-09-28T00:07:38.827Z,1882.77
2018-09-28T00:10:06.700Z,1879.20
2018-09-28T00:12:34.587Z,1990.23
2018-09-28T00:15:02.456Z,1872.07
2018-09-28T00:17:30.336Z,1889.33
2018-09-28T00:19:58.203Z,1999.90
2018-09-28T00:22:26.064Z,1887.93
2018-09-28T00:24:53.919Z,1947.13
2018-09-28T00:27:21.784Z,1863.77
2018-09-28T00:29:49.704Z,1843.83
2018-09-28T00:32:17.599Z,1984.17
2018-09-28T00:34:45.464Z,1821.33
2018-09-28T00:37:13.440Z,1920.77
2018-09-28T00:39:41.308Z,1891.60
2018-09-28T00:42:09.211Z,1868.60
2018-09-28T00:44:37.350Z,1916.00
2018-09-28T00:47:05.222Z,1925.07
2018-09-28T00:49:33.090Z,1957.13
2018-09-28T00:52:00.958Z,1975.97
2018-09-28T00:54:28.819Z,1983.60
2018-09-28T00:56:56.679Z,1996.40
2018-09-28T00:59:24.560Z,1886.93
2018-09-28T01:01:52.412Z,1999.90
2018-09-28T01:04:20.284Z,1863.20
2018-09-28T01:06:48.143Z,1840.90
2018-09-28T01:09:16.404Z,1762.77
2018-09-28T01:11:44.693Z,1828.23
2018-09-28T01:14:12.567Z,1797.30
2018-09-28T01:16:40.466Z,1700.53
2018-09-28T01:19:08.350Z,1521.23
2018-09-28T01:21:36.218Z,1671.40
2018-09-28T01:24:04.078Z,1598.30
2018-09-28T01:26:32.031Z,1546.63
2018-09-28T01:28:59.919Z,1528.23
2018-09-28T01:31:27.870Z,1549.20
2018-09-28T01:33:55.749Z,1585.37
2018-09-28T01:36:23.680Z,1549.80
2018-09-28T01:38:51.548Z,1487.23
2018-09-28T01:41:19.408Z,1540.57
2018-09-28T01:43:47.281Z,1579.63
2018-09-28T01:46:15.139Z,1442.77
2018-09-28T01:48:43.004Z,1427.93
2018-09-28T01:51:10.869Z,1423.90
2018-09-28T01:53:38.756Z,1436.50
2018-09-28T01:56:06.660Z,1456.67
2018-09-28T01:58:34.563Z,1371.23
2018-09-28T02:01:02.430Z,1422.77
2018-09-28T02:03:30.330Z,1495.30
2018-09-28T02:05:58.207Z,1386.83
2018-09-28T02:08:26.074Z,1480.33
2018-09-28T02:10:53.957Z,1444.67
2018-09-28T02:13:21.840Z,1407.67
2018-09-28T02:15:49.770Z,1386.43
2018-09-28T02:18:17.598Z,1354.33
2018-09-28T02:20:45.483Z,1407.80
2018-09-28T02:23:13.361Z,1474.43
2018-09-28T02:25:41.249Z,1460.80
2018-09-28T02:28:09.138Z,1446.77
2018-09-28T02:30:37.028Z,1497.30
2018-09-28T02:33:04.944Z,1376.30
2018-09-28T02:35:32.813Z,1413.97
2018-09-28T02:38:00.659Z,1405.20
2018-09-28T02:40:28.584Z,1424.83
2018-09-28T02:42:56.443Z,1423.87
2018-09-28T02:45:24.322Z,1328.80
2018-09-28T02:47:52.198Z,1380.70
2018-09-28T02:50:20.083Z,1385.70
2018-09-28T02:52:47.951Z,1477.43
2018-09-28T02:55:15.880Z,1389.90
2018-09-28T02:57:43.810Z,1520.17
2018-09-28T03:00:11.706Z,1425.40
2018-09-28T03:02:39.627Z,1646.40
2018-09-28T03:05:07.520Z,1591.97
2018-09-28T03:07:35.416Z,1660.67
2018-09-28T03:10:03.300Z,1620.90
2018-09-28T03:12:31.164Z,1433.50
2018-09-28T03:14:59.034Z,1489.57
2018-09-28T03:17:26.952Z,1570.53
2018-09-28T03:19:54.847Z,1613.10
2018-09-28T03:22:22.738Z,1582.27
2018-09-28T03:24:50.652Z,1603.90
2018-09-28T03:27:18.574Z,1583.47
2018-09-28T03:29:46.472Z,1481.87
2018-09-28T03:32:14.342Z,1479.67
2018-09-28T03:34:42.234Z,1445.43
2018-09-28T03:37:10.098Z,1433.07
2018-09-28T03:39:38.022Z,1423.30
2018-09-28T03:42:09.727Z,1395.87
2018-09-28T03:44:37.625Z,1400.90
2018-09-28T03:47:05.490Z,1382.53
2018-09-28T03:49:33.417Z,1400.83
2018-09-28T03:52:01.317Z,1380.80
2018-09-28T03:54:29.210Z,1320.97
2018-09-28T03:56:58.147Z,1316.00
2018-09-28T03:59:26.030Z,1360.80
2018-09-28T04:01:53.928Z,1358.30
2018-09-28T04:04:21.832Z,1359.00
2018-09-28T04:06:49.727Z,1406.47
2018-09-28T04:09:17.597Z,1490.87
2018-09-28T04:11:45.488Z,1502.67
2018-09-28T04:14:13.367Z,1524.30
2018-09-28T04:16:41.289Z,1380.60
2018-09-28T04:19:09.158Z,1389.73
2018-09-28T04:21:37.035Z,1345.73
2018-09-28T04:24:04.913Z,1487.63
2018-09-28T04:26:32.793Z,1354.43
2018-09-28T04:29:00.669Z,1877.87
2018-09-28T04:31:28.534Z,1607.37
2018-09-28T04:34:01.331Z,1437.70
2018-09-28T04:36:29.233Z,1322.27
2018-09-28T04:38:57.382Z,1308.03
2018-09-28T04:41:25.272Z,1478.67
2018-09-28T04:43:53.155Z,1632.67
2018-09-28T04:46:26.228Z,1650.47
2018-09-28T04:48:54.095Z,1791.13
2018-09-28T04:51:21.960Z,1488.93
2018-09-28T04:53:49.824Z,1548.10
2018-09-28T04:56:17.698Z,1550.30
2018-09-28T04:58:45.565Z,1461.10
2018-09-28T05:01:13.429Z,1478.27
2018-09-28T05:03:41.308Z,1842.50
2018-09-28T05:06:09.341Z,1595.10
2018-09-28T05:08:37.484Z,1528.17
2018-09-28T05:11:05.350Z,1657.17
2018-09-28T05:13:33.290Z,1677.53
2018-09-28T05:16:01.282Z,1999.90
2018-09-28T05:18:29.175Z,1999.90
2018-09-28T05:20:57.044Z,1999.90
2018-09-28T05:23:24.925Z,1999.90
2018-09-28T05:25:52.876Z,1656.10
2018-09-28T05:28:20.744Z,1959.37
2018-09-28T05:30:53.970Z,1810.47
2018-09-28T05:33:16.494Z,1952.90
2018-09-28T05:35:44.363Z,1999.90
2018-09-28T05:38:12.218Z,1831.80
2018-09-28T05:40:40.570Z,1999.90
2018-09-28T05:43:08.600Z,1937.97
2018-09-28T05:45:36.480Z,1854.13
2018-09-28T05:48:04.335Z,1999.90
2018-09-28T05:50:32.207Z,1999.90
2018-09-28T05:53:00.072Z,1999.90
2018-09-28T05:55:27.923Z,1999.90
2018-09-28T05:58:01.411Z,1999.90
2018-09-28T06:00:34.937Z,1999.90
2018-09-28T06:03:04.468Z,1999.90
2018-09-28T06:05:32.968Z,1999.90
2018-09-28T06:08:01.332Z,1999.90
2018-09-28T06:10:29.209Z,1999.90
2018-09-28T06:12:57.076Z,1999.90
2018-09-28T06:15:24.930Z,1999.90
2018-09-28T06:17:52.805Z,1999.90
2018-09-28T06:20:20.721Z,1999.90
2018-09-28T06:22:48.587Z,1999.90
2018-09-28T06:25:16.523Z,1999.90
2018-09-28T06:27:44.428Z,1999.90
2018-09-28T06:30:12.314Z,1999.90
2018-09-28T06:32:40.162Z,1999.90
2018-09-28T06:35:08.028Z,1999.90
2018-09-28T06:37:35.919Z,1999.90
2018-09-28T06:40:03.778Z,1999.90
2018-09-28T06:42:31.711Z,1999.90
2018-09-28T06:44:59.517Z,1999.90
2018-09-28T06:47:27.390Z,1999.90
2018-09-28T06:49:55.267Z,1999.90
2018-09-28T06:52:23.138Z,1999.90
2018-09-28T06:54:51.008Z,1999.90
2018-09-28T06:57:19.691Z,1999.90
2018-09-28T06:59:47.599Z,1988.33
2018-09-28T07:02:15.531Z,1985.93
2018-09-28T07:04:43.440Z,1999.90
2018-09-28T07:07:11.311Z,1732.50
2018-09-28T07:09:39.196Z,1999.90
2018-09-28T07:12:07.081Z,1554.70
2018-09-28T07:14:34.934Z,1841.57
2018-09-28T07:17:02.804Z,1999.90
2018-09-28T07:19:30.666Z,1999.90
2018-09-28T07:21:58.544Z,1753.83
2018-09-28T07:24:27.288Z,1598.93
2018-09-28T07:26:55.246Z,1553.07
2018-09-28T07:29:23.122Z,1612.70
2018-09-28T07:31:51.267Z,1953.67
2018-09-28T07:34:19.159Z,1392.30
2018-09-28T07:36:47.097Z,1306.67
2018-09-28T07:39:14.882Z,1671.30
2018-09-28T07:41:42.760Z,1114.33
2018-09-28T07:44:10.719Z,1544.63
2018-09-28T07:46:38.592Z,498.50
2018-09-28T07:49:06.499Z,585.47
2018-09-28T07:51:34.519Z,587.43
2018-09-28T07:54:02.387Z,1171.63
2018-09-28T07:56:30.249Z,942.43
2018-09-28T07:58:58.133Z,1446.07
2018-09-28T08:01:25.981Z,1362.80
2018-09-28T08:03:53.894Z,1405.37
2018-09-28T08:06:21.716Z,1033.63
2018-09-28T08:08:49.602Z,1229.10
2018-09-28T08:11:17.501Z,1679.90
2018-09-28T08:13:45.375Z,1227.97
2018-09-28T08:16:13.253Z,852.47
2018-09-28T08:18:41.106Z,1018.47
2018-09-28T08:21:08.966Z,880.60
2018-09-28T08:23:36.820Z,168.80
2018-09-28T08:26:04.770Z,553.53
2018-09-28T08:28:32.656Z,295.53
2018-09-28T08:31:00.525Z,110.33
2018-09-28T08:33:28.395Z,154.37
2018-09-28T08:35:56.269Z,189.10
2018-09-28T08:38:24.129Z,96.97
2018-09-28T08:40:51.990Z,92.30
2018-09-28T08:43:19.851Z,116.93
2018-09-28T08:45:47.703Z,75.20
2018-09-28T08:48:15.559Z,78.23
2018-09-28T08:50:43.424Z,78.13
2018-09-28T08:53:11.292Z,100.17
2018-09-28T08:55:39.153Z,126.13
2018-09-28T08:58:07.012Z,197.27
2018-09-28T09:00:34.891Z,92.97
2018-09-28T09:03:02.760Z,134.43
2018-09-28T09:05:30.599Z,79.27
2018-09-28T09:07:58.448Z,169.97
2018-09-28T09:10:26.322Z,89.77
2018-09-28T09:12:54.181Z,201.67
2018-09-28T09:15:22.039Z,193.90
2018-09-28T09:17:49.911Z,93.10
2018-09-28T09:20:17.779Z,135.83
2018-09-28T09:22:45.632Z,91.20
2018-09-28T09:25:13.500Z,269.33
2018-09-28T09:27:41.366Z,76.10
2018-09-28T09:30:09.251Z,75.57
2018-09-28T09:32:37.095Z,79.70
2018-09-28T09:35:04.989Z,213.57
2018-09-28T09:37:32.839Z,71.50
2018-09-28T09:40:00.704Z,76.57
2018-09-28T09:42:28.571Z,76.67
2018-09-28T09:44:56.423Z,69.40
2018-09-28T09:47:24.283Z,88.03
2018-09-28T09:49:52.147Z,71.37
2018-09-28T09:52:20.003Z,85.63
2018-09-28T09:54:47.877Z,77.93
2018-09-28T09:57:15.786Z,76.50
2018-09-28T09:59:43.647Z,93.50
2018-09-28T10:02:17.088Z,145.93
2018-09-28T10:04:44.948Z,85.90
2018-09-28T10:07:12.809Z,75.23
2018-09-28T10:09:40.704Z,74.33
2018-09-28T10:12:08.573Z,100.73
2018-09-28T10:14:36.455Z,78.63
2018-09-28T10:17:04.302Z,72.63
2018-09-28T10:19:32.183Z,72.63
2018-09-28T10:22:00.008Z,72.27
2018-09-28T10:24:27.877Z,78.00
2018-09-28T10:26:55.793Z,74.13
2018-09-28T10:29:23.605Z,66.50
2018-09-28T10:31:51.455Z,73.67
2018-09-28T10:34:19.367Z,95.57
2018-09-28T10:36:47.227Z,140.63
2018-09-28T10:39:15.085Z,81.57
2018-09-28T10:41:42.940Z,74.80
2018-09-28T10:44:10.800Z,346.03
2018-09-28T10:46:38.768Z,77.80
2018-09-28T10:49:06.551Z,99.03
2018-09-28T10:51:34.421Z,100.57
2018-09-28T10:54:02.258Z,106.83
2018-09-28T10:56:30.127Z,75.13
2018-09-28T10:58:58.117Z,79.43
2018-09-28T11:01:25.879Z,90.40
2018-09-28T11:03:53.728Z,78.73
2018-09-28T11:06:21.595Z,89.57
2018-09-28T11:08:49.497Z,80.47
2018-09-28T11:11:17.336Z,74.77
2018-09-28T11:13:45.196Z,75.47
2018-09-28T11:16:13.055Z,86.47
2018-09-28T11:18:40.911Z,91.87
2018-09-28T11:21:08.827Z,76.80
2018-09-28T11:23:36.638Z,81.33
2018-09-28T11:26:04.503Z,78.20
2018-09-28T11:28:32.375Z,101.50
2018-09-28T11:31:00.231Z,87.13
2018-09-28T11:33:28.163Z,92.43
2018-09-28T11:35:55.950Z,83.80
2018-09-28T11:38:23.814Z,74.40
2018-09-28T11:40:51.676Z,72.90
2018-09-28T11:43:19.550Z,78.83
2018-09-28T11:45:47.473Z,79.03
2018-09-28T11:48:15.284Z,78.73
2018-09-28T11:50:43.137Z,76.20
2018-09-28T11:53:10.979Z,73.00
2018-09-28T11:55:38.830Z,77.90
2018-09-28T11:58:06.732Z,75.70
2018-09-28T12:00:34.614Z,71.53
2018-09-28T12:03:02.474Z,76.10
2018-09-28T12:05:30.380Z,96.20
2018-09-28T12:07:58.218Z,78.20
2018-09-28T12:10:26.198Z,73.93
2018-09-28T12:12:54.110Z,76.70
2018-09-28T12:15:22.044Z,79.90
2018-09-28T12:17:49.884Z,74.90
2018-09-28T12:20:17.743Z,74.67
2018-09-28T12:22:45.607Z,84.43
2018-09-28T12:25:13.608Z,75.23
2018-09-28T12:27:41.550Z,83.93
2018-09-28T12:30:09.507Z,86.43
2018-09-28T12:32:37.441Z,74.40
2018-09-28T12:35:05.311Z,80.43
2018-09-28T12:37:33.184Z,106.73
2018-09-28T12:40:01.178Z,84.20
2018-09-28T12:42:29.037Z,77.77
2018-09-28T12:44:57.072Z,76.17
2018-09-28T12:47:24.871Z,85.80
2018-09-28T12:49:52.724Z,78.77
2018-09-28T12:52:20.611Z,99.53
2018-09-28T12:54:48.660Z,90.83
2018-09-28T12:57:16.494Z,85.40
2018-09-28T12:59:44.357Z,76.80
2018-09-28T13:02:12.344Z,79.17
2018-09-28T13:04:40.194Z,83.03
2018-09-28T13:07:08.168Z,89.10
2018-09-28T13:09:36.078Z,79.50
2018-09-28T13:12:03.936Z,78.20
2018-09-28T13:14:31.880Z,86.93
2018-09-28T13:16:59.803Z,77.20
2018-09-28T13:19:27.655Z,75.50
2018-09-28T13:21:55.524Z,77.43
2018-09-28T13:24:23.521Z,76.87
2018-09-28T13:26:51.426Z,90.27
2018-09-28T13:29:19.339Z,104.30
2018-09-28T13:31:47.943Z,76.87
2018-09-28T13:34:15.860Z,91.70
2018-09-28T13:36:43.807Z,104.77
2018-09-28T13:39:11.709Z,80.23
2018-09-28T13:41:39.724Z,76.53
2018-09-28T13:44:07.671Z,74.87
2018-09-28T13:46:35.544Z,71.27
2018-09-28T13:49:03.456Z,74.00
2018-09-28T13:51:31.332Z,80.30
2018-09-28T13:53:59.439Z,74.60
2018-09-28T13:56:27.416Z,74.17
2018-09-28T13:58:55.299Z,79.47
2018-09-28T14:01:23.155Z,89.47
2018-09-28T14:03:51.207Z,76.40
2018-09-28T14:06:19.154Z,85.63
2018-09-28T14:08:47.029Z,85.47
2018-09-28T14:11:14.843Z,75.73
2018-09-28T14:13:42.716Z,75.87
2018-09-28T14:16:10.593Z,78.50
2018-09-28T14:18:38.471Z,81.60
2018-09-28T14:21:06.439Z,87.53
2018-09-28T14:23:34.321Z,82.17
2018-09-28T14:26:02.231Z,80.60
2018-09-28T14:28:30.206Z,79.10
2018-09-28T14:30:57.991Z,75.23
2018-09-28T14:33:25.855Z,77.23
2018-09-28T14:35:53.711Z,81.10
2018-09-28T14:38:21.742Z,77.57
2018-09-28T14:40:49.661Z,93.00
2018-09-28T14:43:17.519Z,76.23
2018-09-28T14:45:45.368Z,89.57
2018-09-28T14:48:13.327Z,93.63
2018-09-28T14:50:41.212Z,116.13
2018-09-28T14:53:09.030Z,78.17
2018-09-28T14:55:36.888Z,76.63
2018-09-28T14:58:04.748Z,81.60
2018-09-28T15:00:32.771Z,82.63
2018-09-28T15:03:00.566Z,83.03
2018-09-28T15:05:28.456Z,77.97
2018-09-28T15:07:57.138Z,82.23
2018-09-28T15:10:25.114Z,85.17
2018-09-28T15:12:52.948Z,78.00
2018-09-28T15:15:20.821Z,74.90
2018-09-28T15:17:48.809Z,75.17
2018-09-28T15:20:16.721Z,75.23
2018-09-28T15:22:44.584Z,75.70
2018-09-28T15:25:12.642Z,77.13
2018-09-28T15:27:40.543Z,86.73
2018-09-28T15:30:08.656Z,88.57
2018-09-28T15:32:36.626Z,84.03
2018-09-28T15:35:04.538Z,86.50
2018-09-28T15:37:32.364Z,74.40
2018-09-28T15:40:00.229Z,74.30
2018-09-28T15:42:28.158Z,83.97
2018-09-28T15:44:56.003Z,74.50
2018-09-28T15:47:23.909Z,73.90
2018-09-28T15:49:51.763Z,80.50
2018-09-28T15:52:19.716Z,97.03
2018-09-28T15:54:47.575Z,81.03
2018-09-28T15:57:15.448Z,80.23
2018-09-28T15:59:43.300Z,82.13
2018-09-28T16:02:11.152Z,76.87
2018-09-28T16:04:38.999Z,76.47
2018-09-28T16:07:07.106Z,81.03
2018-09-28T16:09:35.154Z,75.60
2018-09-28T16:12:07.512Z,76.03
2018-09-28T16:14:35.460Z,85.83
2018-09-28T16:17:03.442Z,72.90
2018-09-28T16:19:31.377Z,73.60
2018-09-28T16:21:59.239Z,72.33
2018-09-28T16:24:27.085Z,71.47
2018-09-28T16:26:54.938Z,73.87
2018-09-28T16:29:22.847Z,71.90
2018-09-28T16:31:50.702Z,76.00
2018-09-28T16:34:18.564Z,70.63
2018-09-28T16:36:46.442Z,74.90
2018-09-28T16:39:14.443Z,75.50
2018-09-28T16:41:42.287Z,66.80
2018-09-28T16:44:10.165Z,68.60
2018-09-28T16:46:38.026Z,69.77
2018-09-28T16:49:05.879Z,70.17
2018-09-28T16:51:34.551Z,70.67
2018-09-28T16:54:02.420Z,73.40
2018-09-28T16:56:30.287Z,69.50
2018-09-28T16:58:58.155Z,66.30
2018-09-28T17:01:26.000Z,71.30
2018-09-28T17:03:53.859Z,71.13
2018-09-28T17:06:21.728Z,75.00
2018-09-28T17:08:49.615Z,68.40
2018-09-28T17:11:17.469Z,66.57
2018-09-28T17:13:45.343Z,68.40
2018-09-28T17:16:13.183Z,72.90
2018-09-28T17:18:41.047Z,66.10
2018-09-28T17:21:08.908Z,71.77
2018-09-28T17:23:36.779Z,72.47
2018-09-28T17:26:04.623Z,74.03
2018-09-28T17:28:32.548Z,70.50
2018-09-28T17:31:00.435Z,68.00
2018-09-28T17:33:28.279Z,68.03
2018-09-28T17:35:56.752Z,69.63
2018-09-28T17:38:24.603Z,68.60
2018-09-28T17:40:52.463Z,68.07
2018-09-28T17:43:20.327Z,70.50
2018-09-28T17:45:48.306Z,70.00
2018-09-28T17:48:16.175Z,78.00
2018-09-28T17:50:44.028Z,86.23
2018-09-28T17:53:11.883Z,70.87
2018-09-28T17:55:39.808Z,71.40
2018-09-28T17:58:07.679Z,74.63
2018-09-28T18:00:35.543Z,72.27
2018-09-28T18:03:03.393Z,80.43
2018-09-28T18:05:31.298Z,80.10
2018-09-28T18:07:59.135Z,86.30
2018-09-28T18:10:27.003Z,117.80
2018-09-28T18:12:54.881Z,174.63
2018-09-28T18:15:22.865Z,445.63
2018-09-28T18:17:50.726Z,435.17
2018-09-28T18:20:18.641Z,878.17
2018-09-28T18:22:46.489Z,970.13
2018-09-28T18:25:14.372Z,812.33
2018-09-28T18:27:42.254Z,884.60
2018-09-28T18:30:10.131Z,1025.30
2018-09-28T18:32:37.994Z,825.73
2018-09-28T18:35:06.050Z,801.83
2018-09-28T18:37:33.956Z,938.47
2018-09-28T18:40:01.856Z,853.87
2018-09-28T18:42:29.720Z,845.23
2018-09-28T18:44:57.606Z,783.20
2018-09-28T18:47:25.455Z,850.87
2018-09-28T18:49:53.343Z,855.77
2018-09-28T18:52:21.211Z,914.90
2018-09-28T18:54:49.082Z,1020.83
2018-09-28T18:57:16.948Z,1074.73
2018-09-28T18:59:45.243Z,1322.50
2018-09-28T19:02:13.292Z,1389.90
2018-09-28T19:04:41.348Z,1622.27
2018-09-28T19:07:09.529Z,1658.83
2018-09-28T19:09:37.949Z,1269.07
2018-09-28T19:12:06.093Z,1260.17
2018-09-28T19:14:34.194Z,1173.03
2018-09-28T19:17:02.333Z,1301.60
2018-09-28T19:19:30.212Z,1154.67
2018-09-28T19:21:58.140Z,924.73
2018-09-28T19:24:26.047Z,815.47
2018-09-28T19:26:53.917Z,620.43
2018-09-28T19:29:21.808Z,764.73
2018-09-28T19:31:49.691Z,689.37
2018-09-28T19:34:17.585Z,730.57
2018-09-28T19:36:45.490Z,649.10
2018-09-28T19:39:13.391Z,644.07
2018-09-28T19:41:41.277Z,612.47
2018-09-28T19:44:09.543Z,562.70
2018-09-28T19:46:37.437Z,436.17
2018-09-28T19:49:05.562Z,627.30
2018-09-28T19:51:33.620Z,720.70
2018-09-28T19:54:01.993Z,348.67
2018-09-28T19:56:29.928Z,799.87
2018-09-28T19:58:57.855Z,1001.77
2018-09-28T20:01:25.740Z,1601.37
2018-09-28T20:03:53.704Z,1344.07
2018-09-28T20:06:22.767Z,1648.47
2018-09-28T20:08:50.684Z,1698.10
2018-09-28T20:11:18.624Z,1265.13
2018-09-28T20:13:46.626Z,1044.53
2018-09-28T20:16:14.567Z,965.23
2018-09-28T20:18:42.574Z,1103.10
2018-09-28T20:21:10.491Z,1276.50
2018-09-28T20:23:38.450Z,1561.67
2018-09-28T20:26:06.528Z,1511.73
2018-09-28T20:28:34.415Z,1305.63
2018-09-28T20:31:02.310Z,1077.60
2018-09-28T20:33:30.237Z,1048.10
2018-09-28T20:35:58.188Z,990.80
2018-09-28T20:38:26.098Z,870.73
2018-09-28T20:40:54.071Z,814.40
2018-09-28T20:43:21.923Z,879.80
2018-09-28T20:45:50.078Z,885.77
2018-09-28T20:48:17.903Z,1000.40
2018-09-28T20:50:45.750Z,1041.03
2018-09-28T20:53:13.622Z,1006.50
2018-09-28T20:55:41.634Z,878.00
2018-09-28T20:58:09.454Z,847.87
2018-09-28T21:00:37.329Z,945.43
2018-09-28T21:03:05.410Z,1104.20
2018-09-28T21:05:33.773Z,1136.03
2018-09-28T21:08:01.647Z,1344.40
2018-09-28T21:10:29.498Z,1456.77
2018-09-28T21:12:57.524Z,1317.47
2018-09-28T21:15:25.934Z,1557.73
2018-09-28T21:17:53.879Z,1488.17
2018-09-28T21:20:21.783Z,1464.33
2018-09-28T21:22:49.838Z,1518.17
2018-09-28T21:25:17.789Z,1659.77
2018-09-28T21:27:45.661Z,1466.77
2018-09-28T21:30:13.573Z,1277.27
2018-09-28T21:32:41.440Z,1584.17
2018-09-28T21:35:09.810Z,1451.07
2018-09-28T21:37:37.674Z,1565.80
2018-09-28T21:40:05.530Z,1439.60
2018-09-28T21:42:33.564Z,1667.17
2018-09-28T21:45:01.459Z,1615.97
2018-09-28T21:47:29.477Z,1255.63
2018-09-28T21:49:57.418Z,1360.17
2018-09-28T21:52:25.283Z,1310.13
2018-09-28T21:54:53.143Z,1380.77
2018-09-28T21:57:20.991Z,1319.30
2018-09-28T21:59:48.875Z,1124.07
2018-09-28T22:02:16.727Z,1279.37
2018-09-28T22:04:44.648Z,1378.93
2018-09-28T22:07:12.494Z,1550.77
2018-09-28T22:09:40.381Z,1784.63
2018-09-28T22:12:08.227Z,1758.83
2018-09-28T22:14:36.107Z,1783.20
2018-09-28T22:17:03.959Z,1446.67
2018-09-28T22:19:31.816Z,1572.93
2018-09-28T22:21:59.654Z,1350.87
2018-09-28T22:24:27.523Z,1648.60
2018-09-28T22:26:55.451Z,1384.33
2018-09-28T22:29:23.332Z,1540.90
2018-09-28T22:31:51.213Z,1685.77
2018-09-28T22:34:19.165Z,1325.83
2018-09-28T22:36:47.026Z,1315.33
2018-09-28T22:39:14.892Z,1398.23
2018-09-28T22:41:42.744Z,1415.53
2018-09-28T22:44:10.607Z,1417.53
2018-09-28T22:46:38.642Z,1402.97
2018-09-28T22:49:06.510Z,1572.57
2018-09-28T22:51:34.363Z,1638.27
2018-09-28T22:54:02.245Z,1553.80
2018-09-28T22:56:30.123Z,1566.40
2018-09-28T22:58:58.023Z,1590.20
2018-09-28T23:01:25.903Z,1788.40
2018-09-28T23:03:53.829Z,1635.13
2018-09-28T23:06:21.691Z,1713.17
2018-09-28T23:08:49.604Z,1723.70
2018-09-28T23:11:17.619Z,1944.33
2018-09-28T23:13:45.575Z,1802.67
2018-09-28T23:16:13.441Z,1690.47
2018-09-28T23:18:41.367Z,1743.30
2018-09-28T23:21:09.234Z,1617.80
2018-09-28T23:23:38.202Z,1531.80
2018-09-28T23:26:06.079Z,1268.67
2018-09-28T23:28:34.011Z,1503.10
2018-09-28T23:31:01.888Z,1894.77
2018-09-28T23:33:29.782Z,1671.77
2018-09-28T23:35:57.674Z,1396.97
2018-09-28T23:38:25.567Z,1375.90
2018-09-28T23:40:53.487Z,1496.17
2018-09-28T23:43:21.568Z,1639.93
2018-09-28T23:45:49.460Z,1626.33
2018-09-28T23:48:17.353Z,1408.53
2018-09-28T23:50:45.236Z,1490.47
2018-09-28T23:53:13.125Z,1378.50
2018-09-28T23:55:41.028Z,1466.03
2018-09-28T23:58:08.933Z,1268.33
